createdAt,value
2023-02-07T00:01:11.159Z,23.20
2023-02-07T00:04:13.783Z,23.20
2023-02-07T00:07:15.814Z,23.30
2023-02-07T00:10:18.071Z,23.30
2023-02-07T00:13:20.094Z,23.20
2023-02-07T00:16:22.670Z,23.20
2023-02-07T00:19:25.085Z,23.30
2023-02-07T00:22:27.756Z,23.20
2023-02-07T00:25:29.790Z,23.30
2023-02-07T00:28:32.828Z,23.30
2023-02-07T00:31:36.535Z,23.30
2023-02-07T00:34:38.921Z,23.20
2023-02-07T00:37:40.913Z,23.20
2023-02-07T00:40:43.162Z,23.20
2023-02-07T00:43:46.836Z,23.30
2023-02-07T00:46:49.286Z,23.30
2023-02-07T00:49:51.390Z,23.20
2023-02-07T00:52:53.994Z,23.20
2023-02-07T00:55:56.087Z,23.20
2023-02-07T00:58:59.042Z,23.20
2023-02-07T01:02:01.346Z,23.20
2023-02-07T01:05:04.074Z,23.20
2023-02-07T01:08:06.218Z,23.20
2023-02-07T01:11:13.978Z,23.20
2023-02-07T01:14:16.060Z,23.20
2023-02-07T01:17:18.326Z,23.20
2023-02-07T01:20:20.446Z,23.00
2023-02-07T01:23:22.799Z,23.10
2023-02-07T01:26:26.005Z,23.10
2023-02-07T01:29:28.360Z,23.10
2023-02-07T01:32:33.138Z,23.10
2023-02-07T01:35:37.094Z,23.10
2023-02-07T01:38:39.877Z,23.20
2023-02-07T01:41:42.298Z,23.20
2023-02-07T01:44:44.239Z,23.30
2023-02-07T01:47:46.529Z,23.20
2023-02-07T01:50:51.514Z,23.10
2023-02-07T01:53:57.628Z,23.10
2023-02-07T01:57:06.051Z,23.10
2023-02-07T02:00:09.339Z,23.20
2023-02-07T02:03:11.316Z,23.20
2023-02-07T02:06:14.148Z,23.10
2023-02-07T02:09:17.259Z,23.10
2023-02-07T02:12:22.403Z,23.10
2023-02-07T02:15:24.374Z,23.10
2023-02-07T02:18:51.377Z,23.10
2023-02-07T02:22:27.956Z,23.10
2023-02-07T02:25:51.078Z,23.10
2023-02-07T02:29:32.262Z,23.10
2023-02-07T02:32:43.641Z,23.10
2023-02-07T02:35:51.489Z,23.00
2023-02-07T02:39:13.447Z,23.00
2023-02-07T02:42:18.403Z,23.00
2023-02-07T02:45:32.720Z,23.10
2023-02-07T02:48:36.305Z,23.10
2023-02-07T02:51:38.658Z,23.00
2023-02-07T02:54:42.346Z,23.00
2023-02-07T02:57:50.292Z,23.00
2023-02-07T03:01:06.445Z,23.00
2023-02-07T03:04:26.500Z,23.00
2023-02-07T03:07:49.194Z,23.00
2023-02-07T03:11:20.566Z,23.00
2023-02-07T03:14:37.158Z,23.00
2023-02-07T03:18:16.931Z,23.00
2023-02-07T03:21:42.386Z,23.00
2023-02-07T03:24:48.198Z,23.00
2023-02-07T03:27:51.133Z,23.10
2023-02-07T03:30:56.890Z,23.10
2023-02-07T03:34:07.046Z,23.10
2023-02-07T03:37:31.665Z,23.00
2023-02-07T03:40:39.194Z,22.90
2023-02-07T03:43:43.815Z,22.90
2023-02-07T03:46:46.001Z,22.90
2023-02-07T03:49:48.499Z,22.90
2023-02-07T03:52:50.541Z,23.00
2023-02-07T03:55:53.370Z,22.90
2023-02-07T03:58:55.772Z,22.90
2023-02-07T04:01:58.109Z,22.90
2023-02-07T04:05:00.279Z,22.80
2023-02-07T04:08:02.756Z,22.70
2023-02-07T04:11:05.231Z,22.70
2023-02-07T04:14:07.573Z,22.70
2023-02-07T04:17:09.738Z,22.70
2023-02-07T04:20:13.126Z,22.60
2023-02-07T04:23:15.111Z,22.70
2023-02-07T04:26:17.793Z,22.60
2023-02-07T04:29:19.904Z,22.60
2023-02-07T04:32:22.284Z,22.60
2023-02-07T04:35:24.504Z,22.70
2023-02-07T04:38:27.599Z,22.70
2023-02-07T04:41:29.651Z,22.70
2023-02-07T04:44:32.087Z,22.80
2023-02-07T04:47:35.177Z,22.80
2023-02-07T04:50:37.442Z,22.90
2023-02-07T04:53:39.482Z,22.90
2023-02-07T04:56:42.053Z,23.00
2023-02-07T04:59:44.165Z,23.10
2023-02-07T05:02:46.487Z,23.20
2023-02-07T05:05:49.001Z,23.20
2023-02-07T05:08:51.486Z,23.30
2023-02-07T05:11:53.455Z,23.40
2023-02-07T05:14:56.380Z,23.40
2023-02-07T05:17:59.058Z,23.50
2023-02-07T05:21:01.412Z,23.60
2023-02-07T05:24:04.231Z,23.70
2023-02-07T05:27:06.721Z,23.80
2023-02-07T05:30:09.458Z,24.00
2023-02-07T05:33:12.048Z,24.10
2023-02-07T05:36:14.076Z,24.20
2023-02-07T05:39:16.370Z,24.30
2023-02-07T05:42:18.502Z,24.30
2023-02-07T05:45:21.848Z,24.40
2023-02-07T05:48:23.868Z,24.50
2023-02-07T05:51:26.304Z,24.60
2023-02-07T05:54:28.387Z,24.60
2023-02-07T05:57:30.737Z,24.70
2023-02-07T06:00:32.805Z,24.70
2023-02-07T06:03:35.196Z,24.80
2023-02-07T06:06:37.253Z,24.80
2023-02-07T06:09:39.509Z,24.90
2023-02-07T06:12:41.719Z,24.90
2023-02-07T06:15:44.052Z,25.00
2023-02-07T06:18:46.087Z,25.00
2023-02-07T06:21:48.404Z,25.00
2023-02-07T06:24:50.387Z,25.10
2023-02-07T06:27:52.704Z,25.10
2023-02-07T06:30:54.938Z,25.10
2023-02-07T06:33:57.558Z,25.20
2023-02-07T06:36:59.546Z,25.20
2023-02-07T06:40:02.869Z,25.20
2023-02-07T06:43:04.900Z,25.30
2023-02-07T06:46:07.715Z,25.30
2023-02-07T06:49:11.539Z,25.20
2023-02-07T06:52:14.006Z,25.30
2023-02-07T06:55:16.106Z,25.30
2023-02-07T06:58:18.468Z,25.40
2023-02-07T07:01:22.337Z,25.40
2023-02-07T07:04:24.748Z,25.50
2023-02-07T07:07:26.790Z,25.40
2023-02-07T07:10:29.737Z,25.40
2023-02-07T07:13:31.799Z,25.50
2023-02-07T07:16:34.071Z,25.60
2023-02-07T07:19:36.163Z,25.70
2023-02-07T07:22:38.699Z,25.70
2023-02-07T07:25:40.897Z,25.80
2023-02-07T07:28:43.553Z,25.90
2023-02-07T07:31:46.578Z,26.00
2023-02-07T07:34:50.328Z,26.10
2023-02-07T07:37:52.458Z,25.90
2023-02-07T07:40:55.583Z,26.10
2023-02-07T07:43:58.287Z,26.20
2023-02-07T07:47:00.689Z,26.30
2023-02-07T07:50:02.863Z,26.30
2023-02-07T07:53:06.028Z,26.40
2023-02-07T07:56:08.057Z,26.40
2023-02-07T07:59:20.067Z,26.50
2023-02-07T08:02:25.651Z,26.50
2023-02-07T08:05:28.040Z,26.50
2023-02-07T08:08:30.037Z,26.50
2023-02-07T08:11:32.758Z,26.60
2023-02-07T08:14:35.819Z,26.50
2023-02-07T08:17:40.512Z,26.50
2023-02-07T08:20:42.601Z,26.60
2023-02-07T08:23:44.934Z,26.60
2023-02-07T08:26:46.979Z,26.70
2023-02-07T08:29:49.301Z,26.60
2023-02-07T08:32:51.876Z,26.60
2023-02-07T08:35:54.287Z,26.60
2023-02-07T08:38:56.357Z,26.70
2023-02-07T08:41:58.920Z,26.90
2023-02-07T08:45:01.064Z,26.70
2023-02-07T08:48:03.473Z,26.80
2023-02-07T08:51:07.953Z,26.90
2023-02-07T08:54:10.413Z,26.90
2023-02-07T08:57:12.447Z,27.00
2023-02-07T09:00:15.364Z,27.10
2023-02-07T09:03:17.502Z,27.10
2023-02-07T09:06:19.911Z,27.10
2023-02-07T09:09:25.240Z,27.10
2023-02-07T09:12:27.502Z,27.10
2023-02-07T09:15:29.647Z,27.10
2023-02-07T09:18:31.986Z,27.10
2023-02-07T09:21:34.042Z,27.10
2023-02-07T09:24:36.540Z,27.10
2023-02-07T09:27:38.588Z,27.00
2023-02-07T09:30:42.860Z,27.10
2023-02-07T09:33:45.055Z,27.10
2023-02-07T09:36:47.366Z,27.20
2023-02-07T09:39:49.460Z,27.20
2023-02-07T09:43:09.059Z,27.30
2023-02-07T09:46:23.751Z,27.30
2023-02-07T09:49:52.107Z,27.40
2023-02-07T09:53:05.139Z,27.40
2023-02-07T09:56:09.648Z,27.40
2023-02-07T09:59:29.243Z,27.50
2023-02-07T10:02:54.908Z,27.50
2023-02-07T10:06:17.424Z,27.50
2023-02-07T10:09:32.555Z,27.60
2023-02-07T10:12:34.605Z,27.60
2023-02-07T10:16:02.149Z,27.50
2023-02-07T10:19:10.850Z,27.40
2023-02-07T10:22:36.990Z,27.40
2023-02-07T10:25:57.805Z,27.40
2023-02-07T10:29:27.129Z,27.20
2023-02-07T10:32:36.054Z,27.10
2023-02-07T10:35:39.754Z,27.00
2023-02-07T10:39:10.048Z,27.10
2023-02-07T10:42:16.874Z,27.20
2023-02-07T10:45:19.931Z,27.40
2023-02-07T10:48:22.350Z,27.40
2023-02-07T10:51:37.829Z,27.30
2023-02-07T10:54:55.069Z,27.40
2023-02-07T10:58:08.509Z,27.50
2023-02-07T11:01:19.724Z,27.60
2023-02-07T11:04:38.325Z,27.80
2023-02-07T11:07:47.637Z,27.80
2023-02-07T11:10:52.593Z,27.90
2023-02-07T11:13:57.640Z,27.90
2023-02-07T11:17:03.128Z,27.90
2023-02-07T11:20:07.635Z,28.00
2023-02-07T11:23:15.264Z,28.00
2023-02-07T11:26:24.653Z,28.00
2023-02-07T11:29:27.414Z,28.10
2023-02-07T11:32:29.958Z,28.10
2023-02-07T11:35:32.029Z,28.10
2023-02-07T11:38:47.475Z,28.20
2023-02-07T11:42:00.847Z,28.30
2023-02-07T11:45:05.181Z,28.30
2023-02-07T11:48:15.403Z,28.40
2023-02-07T11:51:18.820Z,28.50
2023-02-07T11:54:21.306Z,28.60
2023-02-07T11:57:24.802Z,28.50
2023-02-07T12:00:29.639Z,28.50
2023-02-07T12:04:01.717Z,28.40
2023-02-07T12:07:22.379Z,28.30
2023-02-07T12:10:30.324Z,28.40
2023-02-07T12:14:05.917Z,28.50
2023-02-07T12:17:17.323Z,28.40
2023-02-07T12:20:26.857Z,28.40
2023-02-07T12:23:52.604Z,28.50
2023-02-07T12:27:14.346Z,28.40
2023-02-07T12:30:26.200Z,28.20
2023-02-07T12:33:37.900Z,28.30
2023-02-07T12:36:46.492Z,28.30
2023-02-07T12:40:28.866Z,28.30
2023-02-07T12:43:36.562Z,28.30
2023-02-07T12:46:50.112Z,28.20
2023-02-07T12:50:04.272Z,27.90
2023-02-07T12:53:28.164Z,28.00
2023-02-07T12:57:08.855Z,27.90
2023-02-07T13:00:26.058Z,27.90
2023-02-07T13:03:28.324Z,28.00
2023-02-07T13:06:57.870Z,28.00
2023-02-07T13:10:04.127Z,28.10
2023-02-07T13:13:23.870Z,28.30
2023-02-07T13:16:42.760Z,28.20
2023-02-07T13:20:11.810Z,28.30
2023-02-07T13:23:25.421Z,28.30
2023-02-07T13:26:28.437Z,28.40
2023-02-07T13:29:34.388Z,28.40
2023-02-07T13:32:36.404Z,28.40
2023-02-07T13:35:40.157Z,28.40
2023-02-07T13:39:08.365Z,28.40
2023-02-07T13:42:22.206Z,28.40
2023-02-07T13:45:33.263Z,28.40
2023-02-07T13:48:47.686Z,28.30
2023-02-07T13:52:19.918Z,28.40
2023-02-07T13:55:39.182Z,28.30
2023-02-07T13:59:00.111Z,28.30
2023-02-07T14:02:17.899Z,28.30
2023-02-07T14:05:35.154Z,28.20
2023-02-07T14:08:37.789Z,28.20
2023-02-07T14:11:47.282Z,28.20
2023-02-07T14:15:01.855Z,28.20
2023-02-07T14:18:25.953Z,28.20
2023-02-07T14:21:31.019Z,28.20
2023-02-07T14:24:33.244Z,28.10
2023-02-07T14:27:42.378Z,28.10
2023-02-07T14:30:53.719Z,28.10
2023-02-07T14:34:14.651Z,28.20
2023-02-07T14:37:23.264Z,28.20
2023-02-07T14:40:54.368Z,28.20
2023-02-07T14:44:09.096Z,28.20
2023-02-07T14:47:28.727Z,28.10
2023-02-07T14:50:33.479Z,28.10
2023-02-07T14:53:42.636Z,28.10
2023-02-07T14:56:58.987Z,27.80
2023-02-07T15:00:07.182Z,27.80
2023-02-07T15:03:16.356Z,27.90
2023-02-07T15:06:31.858Z,27.90
2023-02-07T15:09:37.995Z,27.90
2023-02-07T15:12:43.802Z,27.80
2023-02-07T15:15:57.796Z,27.90
2023-02-07T15:19:05.531Z,28.00
2023-02-07T15:22:24.047Z,27.80
2023-02-07T15:25:30.906Z,27.80
2023-02-07T15:28:36.705Z,27.80
2023-02-07T15:31:42.737Z,27.90
2023-02-07T15:34:45.558Z,27.80
2023-02-07T15:37:51.870Z,27.70
2023-02-07T15:41:04.653Z,27.80
2023-02-07T15:44:38.700Z,27.80
2023-02-07T15:47:44.835Z,27.70
2023-02-07T15:51:07.491Z,27.70
2023-02-07T15:54:18.140Z,27.70
2023-02-07T15:57:29.654Z,27.80
2023-02-07T16:00:48.719Z,27.80
2023-02-07T16:03:58.845Z,27.70
2023-02-07T16:07:15.052Z,27.80
2023-02-07T16:10:24.082Z,27.80
2023-02-07T16:13:26.293Z,27.70
2023-02-07T16:16:34.410Z,27.80
2023-02-07T16:19:36.480Z,27.70
2023-02-07T16:22:39.142Z,27.70
2023-02-07T16:25:41.560Z,27.60
2023-02-07T16:28:45.476Z,27.70
2023-02-07T16:31:48.465Z,27.50
2023-02-07T16:34:59.661Z,27.50
2023-02-07T16:38:02.438Z,27.50
2023-02-07T16:41:06.675Z,27.60
2023-02-07T16:44:16.975Z,27.60
2023-02-07T16:47:19.283Z,27.60
2023-02-07T16:50:27.247Z,27.70
2023-02-07T16:53:29.584Z,27.60
2023-02-07T16:56:32.300Z,27.60
2023-02-07T16:59:34.735Z,27.50
2023-02-07T17:02:36.735Z,27.50
2023-02-07T17:05:39.289Z,27.40
2023-02-07T17:08:41.893Z,27.40
2023-02-07T17:11:44.413Z,27.40
2023-02-07T17:14:46.753Z,27.40
2023-02-07T17:17:49.286Z,27.40
2023-02-07T17:20:52.361Z,27.40
2023-02-07T17:23:54.673Z,27.50
2023-02-07T17:26:56.842Z,27.50
2023-02-07T17:29:59.852Z,27.40
2023-02-07T17:33:01.894Z,27.40
2023-02-07T17:36:05.155Z,27.40
2023-02-07T17:39:10.697Z,27.40
2023-02-07T17:42:13.139Z,27.40
2023-02-07T17:45:15.852Z,27.30
2023-02-07T17:48:18.140Z,27.40
2023-02-07T17:51:22.828Z,27.40
2023-02-07T17:54:25.118Z,27.40
2023-02-07T17:57:27.237Z,27.40
2023-02-07T18:00:32.752Z,27.40
2023-02-07T18:03:34.835Z,27.40
2023-02-07T18:06:37.217Z,27.50
2023-02-07T18:09:39.167Z,27.50
2023-02-07T18:12:42.381Z,27.50
2023-02-07T18:15:45.000Z,27.50
2023-02-07T18:18:47.290Z,27.50
2023-02-07T18:21:49.624Z,27.40
2023-02-07T18:24:51.942Z,27.40
2023-02-07T18:27:54.958Z,27.50
2023-02-07T18:30:57.488Z,27.50
2023-02-07T18:33:59.647Z,27.50
2023-02-07T18:37:03.002Z,27.40
2023-02-07T18:40:06.982Z,27.30
2023-02-07T18:43:09.365Z,27.10
2023-02-07T18:46:16.599Z,27.00
2023-02-07T18:49:19.014Z,27.10
2023-02-07T18:52:21.009Z,27.20
2023-02-07T18:55:23.333Z,27.10
2023-02-07T18:58:25.371Z,27.20
2023-02-07T19:01:31.577Z,27.10
2023-02-07T19:04:33.895Z,27.20
2023-02-07T19:07:36.259Z,27.10
2023-02-07T19:10:38.593Z,27.10
2023-02-07T19:13:50.601Z,27.20
2023-02-07T19:16:54.196Z,27.20
2023-02-07T19:19:56.550Z,27.10
2023-02-07T19:22:58.533Z,26.90
2023-02-07T19:26:01.068Z,26.80
2023-02-07T19:29:05.295Z,26.70
2023-02-07T19:32:09.324Z,26.80
2023-02-07T19:35:11.327Z,26.80
2023-02-07T19:38:13.670Z,26.90
2023-02-07T19:41:18.220Z,27.10
2023-02-07T19:44:21.496Z,27.20
2023-02-07T19:47:24.640Z,27.30
2023-02-07T19:50:29.633Z,27.30
2023-02-07T19:53:33.450Z,27.30
2023-02-07T19:56:36.642Z,27.30
2023-02-07T19:59:38.978Z,27.40
2023-02-07T20:02:56.920Z,27.40
2023-02-07T20:06:01.308Z,27.40
2023-02-07T20:09:06.087Z,27.40
2023-02-07T20:12:08.596Z,27.40
2023-02-07T20:15:10.872Z,27.30
2023-02-07T20:18:13.750Z,27.30
2023-02-07T20:21:17.823Z,27.20
2023-02-07T20:24:20.086Z,27.20
2023-02-07T20:27:22.183Z,27.20
2023-02-07T20:30:24.658Z,27.20
2023-02-07T20:33:27.122Z,27.30
2023-02-07T20:36:30.732Z,27.30
2023-02-07T20:39:33.277Z,27.30
2023-02-07T20:42:35.574Z,27.20
2023-02-07T20:45:37.702Z,27.20
2023-02-07T20:48:41.020Z,27.20
2023-02-07T20:51:50.450Z,27.20
2023-02-07T20:54:52.727Z,27.30
2023-02-07T20:57:54.865Z,27.30
2023-02-07T21:01:05.708Z,27.30
2023-02-07T21:04:09.107Z,27.30
2023-02-07T21:07:17.702Z,27.30
2023-02-07T21:10:20.770Z,27.40
2023-02-07T21:13:23.140Z,27.50
2023-02-07T21:16:25.273Z,27.40
2023-02-07T21:19:31.503Z,27.40
2023-02-07T21:22:33.497Z,27.30
2023-02-07T21:25:43.172Z,27.30
2023-02-07T21:28:46.446Z,27.20
2023-02-07T21:31:49.788Z,27.10
2023-02-07T21:34:51.867Z,27.10
2023-02-07T21:37:54.321Z,27.20
2023-02-07T21:40:56.371Z,27.10
2023-02-07T21:43:59.904Z,27.10
2023-02-07T21:47:02.966Z,27.00
2023-02-07T21:50:05.856Z,27.00
2023-02-07T21:53:07.892Z,27.10
2023-02-07T21:56:15.564Z,27.10
2023-02-07T21:59:19.750Z,27.00
2023-02-07T22:02:22.175Z,27.10
2023-02-07T22:05:24.275Z,27.00
2023-02-07T22:08:26.578Z,27.10
2023-02-07T22:11:31.851Z,27.10
2023-02-07T22:14:34.154Z,27.10
2023-02-07T22:17:36.160Z,27.10
2023-02-07T22:20:38.703Z,27.10
2023-02-07T22:23:41.265Z,27.00
2023-02-07T22:26:44.334Z,27.00
2023-02-07T22:29:46.317Z,27.10
2023-02-07T22:32:48.862Z,27.00
2023-02-07T22:35:51.375Z,27.00
2023-02-07T22:38:54.403Z,27.00
2023-02-07T22:41:57.109Z,27.00
2023-02-07T22:44:59.431Z,27.00
2023-02-07T22:48:01.498Z,26.80
2023-02-07T22:51:25.786Z,26.90
2023-02-07T22:54:28.167Z,26.70
2023-02-07T22:57:30.868Z,26.90
2023-02-07T23:00:34.176Z,27.00
2023-02-07T23:03:37.215Z,26.80
2023-02-07T23:06:39.287Z,26.80
2023-02-07T23:09:41.918Z,26.80
2023-02-07T23:12:44.042Z,26.80
2023-02-07T23:15:47.755Z,26.90
2023-02-07T23:18:51.865Z,26.90
2023-02-07T23:21:57.566Z,26.90
2023-02-07T23:24:59.635Z,26.90
2023-02-07T23:28:01.952Z,26.80
2023-02-07T23:31:06.080Z,26.80
2023-02-07T23:34:09.574Z,26.80
2023-02-07T23:37:11.564Z,26.70
2023-02-07T23:40:13.990Z,26.60
2023-02-07T23:43:16.367Z,26.60
2023-02-07T23:46:19.091Z,26.60
2023-02-07T23:49:21.591Z,26.70
2023-02-07T23:52:24.144Z,26.60
2023-02-07T23:55:26.299Z,26.50
2023-02-07T23:58:28.652Z,26.50
